sensor_id;sensor_type;location;lat;lon;timestamp;temperature;humidity
35541;DHT22;21650;48.840;9.162;2022-10-12T00:01:21;12.70;99.90
35541;DHT22;21650;48.840;9.162;2022-10-12T00:03:47;12.70;99.90
35541;DHT22;21650;48.840;9.162;2022-10-12T00:06:16;12.70;99.90
35541;DHT22;21650;48.840;9.162;2022-10-12T00:08:42;12.70;99.90
35541;DHT22;21650;48.840;9.162;2022-10-12T00:11:12;12.60;99.90
35541;DHT22;21650;48.840;9.162;2022-10-12T00:13:38;12.60;99.90
35541;DHT22;21650;48.840;9.162;2022-10-12T00:16:05;12.60;99.90
35541;DHT22;21650;48.840;9.162;2022-10-12T00:18:31;12.60;99.90
35541;DHT22;21650;48.840;9.162;2022-10-12T00:21:02;12.60;99.90
35541;DHT22;21650;48.840;9.162;2022-10-12T00:23:29;12.60;99.90
35541;DHT22;21650;48.840;9.162;2022-10-12T00:25:56;12.50;99.90
35541;DHT22;21650;48.840;9.162;2022-10-12T00:28:25;12.50;99.90
35541;DHT22;21650;48.840;9.162;2022-10-12T00:30:50;12.50;99.90
35541;DHT22;21650;48.840;9.162;2022-10-12T00:33:16;12.50;99.90
35541;DHT22;21650;48.840;9.162;2022-10-12T00:35:41;12.50;99.90
35541;DHT22;21650;48.840;9.162;2022-10-12T00:38:07;12.50;99.90
35541;DHT22;21650;48.840;9.162;2022-10-12T00:40:32;12.40;99.90
35541;DHT22;21650;48.840;9.162;2022-10-12T00:42:58;12.40;99.90
35541;DHT22;21650;48.840;9.162;2022-10-12T00:45:24;12.40;99.90
35541;DHT22;21650;48.840;9.162;2022-10-12T00:47:54;12.30;99.90
35541;DHT22;21650;48.840;9.162;2022-10-12T00:50:28;12.30;99.90
35541;DHT22;21650;48.840;9.162;2022-10-12T00:53:03;12.20;99.90
35541;DHT22;21650;48.840;9.162;2022-10-12T00:55:33;12.10;99.90
35541;DHT22;21650;48.840;9.162;2022-10-12T00:58:02;12.10;99.90
35541;DHT22;21650;48.840;9.162;2022-10-12T01:00:29;12.10;99.90
35541;DHT22;21650;48.840;9.162;2022-10-12T01:02:55;12.00;99.90
35541;DHT22;21650;48.840;9.162;2022-10-12T01:05:22;12.00;99.90
35541;DHT22;21650;48.840;9.162;2022-10-12T01:07:48;12.00;99.90
35541;DHT22;21650;48.840;9.162;2022-10-12T01:10:14;12.10;99.90
35541;DHT22;21650;48.840;9.162;2022-10-12T01:12:42;12.10;99.90
35541;DHT22;21650;48.840;9.162;2022-10-12T01:15:09;12.10;99.90
35541;DHT22;21650;48.840;9.162;2022-10-12T01:18:12;12.00;99.90
35541;DHT22;21650;48.840;9.162;2022-10-12T01:20:51;11.90;99.90
35541;DHT22;21650;48.840;9.162;2022-10-12T01:23:41;11.90;99.90
35541;DHT22;21650;48.840;9.162;2022-10-12T01:26:30;11.80;99.90
35541;DHT22;21650;48.840;9.162;2022-10-12T01:36:43;11.60;99.90
35541;DHT22;21650;48.840;9.162;2022-10-12T01:39:45;11.50;99.90
35541;DHT22;21650;48.840;9.162;2022-10-12T01:42:24;11.40;99.90
35541;DHT22;21650;48.840;9.162;2022-10-12T01:45:06;11.50;99.90
35541;DHT22;21650;48.840;9.162;2022-10-12T01:47:32;11.60;99.90
35541;DHT22;21650;48.840;9.162;2022-10-12T01:50:00;11.50;99.90
35541;DHT22;21650;48.840;9.162;2022-10-12T01:52:29;11.60;99.90
35541;DHT22;21650;48.840;9.162;2022-10-12T02:01:23;11.50;99.90
35541;DHT22;21650;48.840;9.162;2022-10-12T02:06:40;11.30;99.90
35541;DHT22;21650;48.840;9.162;2022-10-12T02:09:38;11.30;99.90
35541;DHT22;21650;48.840;9.162;2022-10-12T02:12:18;11.20;99.90
35541;DHT22;21650;48.840;9.162;2022-10-12T02:14:48;11.10;99.90
35541;DHT22;21650;48.840;9.162;2022-10-12T02:17:17;11.00;99.90
35541;DHT22;21650;48.840;9.162;2022-10-12T02:19:55;11.00;99.90
35541;DHT22;21650;48.840;9.162;2022-10-12T02:22:22;11.00;99.90
35541;DHT22;21650;48.840;9.162;2022-10-12T02:24:52;11.10;99.90
35541;DHT22;21650;48.840;9.162;2022-10-12T02:27:21;11.00;99.90
35541;DHT22;21650;48.840;9.162;2022-10-12T02:29:48;11.00;99.90
35541;DHT22;21650;48.840;9.162;2022-10-12T02:32:38;11.00;99.90
35541;DHT22;21650;48.840;9.162;2022-10-12T02:35:07;11.10;99.90
35541;DHT22;21650;48.840;9.162;2022-10-12T02:37:50;11.10;99.90
35541;DHT22;21650;48.840;9.162;2022-10-12T02:40:25;11.10;99.90
35541;DHT22;21650;48.840;9.162;2022-10-12T02:42:58;11.20;99.90
35541;DHT22;21650;48.840;9.162;2022-10-12T02:45:26;11.30;99.90
35541;DHT22;21650;48.840;9.162;2022-10-12T02:47:54;11.40;99.90
35541;DHT22;21650;48.840;9.162;2022-10-12T02:50:21;11.40;99.90
35541;DHT22;21650;48.840;9.162;2022-10-12T02:52:49;11.30;99.90
35541;DHT22;21650;48.840;9.162;2022-10-12T02:55:15;11.40;99.90
35541;DHT22;21650;48.840;9.162;2022-10-12T02:57:41;11.50;99.90
35541;DHT22;21650;48.840;9.162;2022-10-12T03:00:07;11.30;99.90
35541;DHT22;21650;48.840;9.162;2022-10-12T03:02:33;11.20;99.90
35541;DHT22;21650;48.840;9.162;2022-10-12T03:04:59;11.30;99.90
35541;DHT22;21650;48.840;9.162;2022-10-12T03:07:24;11.30;99.90
35541;DHT22;21650;48.840;9.162;2022-10-12T03:09:50;11.30;99.90
35541;DHT22;21650;48.840;9.162;2022-10-12T03:12:16;11.30;99.90
35541;DHT22;21650;48.840;9.162;2022-10-12T03:14:42;11.30;99.90
35541;DHT22;21650;48.840;9.162;2022-10-12T03:17:07;11.30;99.90
35541;DHT22;21650;48.840;9.162;2022-10-12T03:19:33;11.30;99.90
35541;DHT22;21650;48.840;9.162;2022-10-12T03:21:59;11.40;99.90
35541;DHT22;21650;48.840;9.162;2022-10-12T03:24:25;11.50;99.90
35541;DHT22;21650;48.840;9.162;2022-10-12T03:26:50;11.60;99.90
35541;DHT22;21650;48.840;9.162;2022-10-12T03:29:16;11.60;99.90
35541;DHT22;21650;48.840;9.162;2022-10-12T03:31:41;11.70;99.90
35541;DHT22;21650;48.840;9.162;2022-10-12T03:34:07;11.70;99.90
35541;DHT22;21650;48.840;9.162;2022-10-12T03:36:33;11.60;99.90
35541;DHT22;21650;48.840;9.162;2022-10-12T03:38:58;11.70;99.90
35541;DHT22;21650;48.840;9.162;2022-10-12T03:41:24;11.70;99.90
35541;DHT22;21650;48.840;9.162;2022-10-12T03:43:49;11.60;99.90
35541;DHT22;21650;48.840;9.162;2022-10-12T03:46:15;11.60;99.90
35541;DHT22;21650;48.840;9.162;2022-10-12T03:48:40;11.60;99.90
35541;DHT22;21650;48.840;9.162;2022-10-12T03:51:06;11.60;99.90
35541;DHT22;21650;48.840;9.162;2022-10-12T03:53:32;11.60;99.90
35541;DHT22;21650;48.840;9.162;2022-10-12T03:55:57;11.60;99.90
35541;DHT22;21650;48.840;9.162;2022-10-12T03:58:23;11.50;99.90
35541;DHT22;21650;48.840;9.162;2022-10-12T04:00:52;11.60;99.90
35541;DHT22;21650;48.840;9.162;2022-10-12T04:03:18;11.60;99.90
35541;DHT22;21650;48.840;9.162;2022-10-12T04:05:43;11.50;99.90
35541;DHT22;21650;48.840;9.162;2022-10-12T04:08:09;11.50;99.90
35541;DHT22;21650;48.840;9.162;2022-10-12T04:10:34;11.50;99.90
35541;DHT22;21650;48.840;9.162;2022-10-12T04:13:00;11.60;99.90
35541;DHT22;21650;48.840;9.162;2022-10-12T04:15:25;11.60;99.90
35541;DHT22;21650;48.840;9.162;2022-10-12T04:17:52;11.50;99.90
35541;DHT22;21650;48.840;9.162;2022-10-12T04:20:17;11.50;99.90
35541;DHT22;21650;48.840;9.162;2022-10-12T04:22:43;11.50;99.90
35541;DHT22;21650;48.840;9.162;2022-10-12T04:25:10;11.50;99.90
35541;DHT22;21650;48.840;9.162;2022-10-12T04:27:35;11.60;99.90
35541;DHT22;21650;48.840;9.162;2022-10-12T04:30:01;11.50;99.90
35541;DHT22;21650;48.840;9.162;2022-10-12T04:32:27;11.60;99.90
35541;DHT22;21650;48.840;9.162;2022-10-12T04:34:53;11.60;99.90
35541;DHT22;21650;48.840;9.162;2022-10-12T04:37:18;11.60;99.90
35541;DHT22;21650;48.840;9.162;2022-10-12T04:39:44;11.60;99.90
35541;DHT22;21650;48.840;9.162;2022-10-12T04:42:09;11.60;99.90
35541;DHT22;21650;48.840;9.162;2022-10-12T04:44:35;11.70;99.90
35541;DHT22;21650;48.840;9.162;2022-10-12T04:47:01;11.60;99.90
35541;DHT22;21650;48.840;9.162;2022-10-12T04:49:27;11.70;99.90
35541;DHT22;21650;48.840;9.162;2022-10-12T04:51:52;11.70;99.90
35541;DHT22;21650;48.840;9.162;2022-10-12T04:54:18;11.60;99.90
35541;DHT22;21650;48.840;9.162;2022-10-12T04:56:44;11.70;99.90
35541;DHT22;21650;48.840;9.162;2022-10-12T04:59:10;11.70;99.90
35541;DHT22;21650;48.840;9.162;2022-10-12T05:01:35;11.80;99.90
35541;DHT22;21650;48.840;9.162;2022-10-12T05:04:01;11.70;99.90
35541;DHT22;21650;48.840;9.162;2022-10-12T05:06:26;11.80;99.90
35541;DHT22;21650;48.840;9.162;2022-10-12T05:08:52;11.80;99.90
35541;DHT22;21650;48.840;9.162;2022-10-12T05:11:18;11.70;99.90
35541;DHT22;21650;48.840;9.162;2022-10-12T05:13:44;11.80;99.90
35541;DHT22;21650;48.840;9.162;2022-10-12T05:16:09;11.60;99.90
35541;DHT22;21650;48.840;9.162;2022-10-12T05:18:35;11.60;99.90
35541;DHT22;21650;48.840;9.162;2022-10-12T05:21:01;11.70;99.90
35541;DHT22;21650;48.840;9.162;2022-10-12T05:23:26;11.80;99.90
35541;DHT22;21650;48.840;9.162;2022-10-12T05:25:54;11.90;99.90
35541;DHT22;21650;48.840;9.162;2022-10-12T05:28:20;11.90;99.90
35541;DHT22;21650;48.840;9.162;2022-10-12T05:30:50;11.90;99.90
35541;DHT22;21650;48.840;9.162;2022-10-12T05:33:16;11.90;99.90
35541;DHT22;21650;48.840;9.162;2022-10-12T05:35:42;11.90;99.90
35541;DHT22;21650;48.840;9.162;2022-10-12T05:38:09;11.80;99.90
35541;DHT22;21650;48.840;9.162;2022-10-12T05:40:35;11.80;99.90
35541;DHT22;21650;48.840;9.162;2022-10-12T05:43:00;11.80;99.90
35541;DHT22;21650;48.840;9.162;2022-10-12T05:45:26;11.90;99.90
35541;DHT22;21650;48.840;9.162;2022-10-12T05:47:52;11.90;99.90
35541;DHT22;21650;48.840;9.162;2022-10-12T05:50:17;11.90;99.90
35541;DHT22;21650;48.840;9.162;2022-10-12T05:52:43;11.80;99.90
35541;DHT22;21650;48.840;9.162;2022-10-12T05:55:09;11.90;99.90
35541;DHT22;21650;48.840;9.162;2022-10-12T05:57:35;11.90;99.90
35541;DHT22;21650;48.840;9.162;2022-10-12T06:00:03;11.80;99.90
35541;DHT22;21650;48.840;9.162;2022-10-12T06:02:29;11.90;99.90
35541;DHT22;21650;48.840;9.162;2022-10-12T06:04:55;11.90;99.90
35541;DHT22;21650;48.840;9.162;2022-10-12T06:07:20;11.90;99.90
35541;DHT22;21650;48.840;9.162;2022-10-12T06:09:46;12.00;99.90
35541;DHT22;21650;48.840;9.162;2022-10-12T06:12:13;11.90;99.90
35541;DHT22;21650;48.840;9.162;2022-10-12T06:14:39;11.90;99.90
35541;DHT22;21650;48.840;9.162;2022-10-12T06:17:04;11.90;99.90
35541;DHT22;21650;48.840;9.162;2022-10-12T06:19:30;12.00;99.90
35541;DHT22;21650;48.840;9.162;2022-10-12T06:21:56;12.00;99.90
35541;DHT22;21650;48.840;9.162;2022-10-12T06:24:21;12.10;99.90
35541;DHT22;21650;48.840;9.162;2022-10-12T06:26:47;12.10;99.90
35541;DHT22;21650;48.840;9.162;2022-10-12T06:29:13;12.10;99.90
35541;DHT22;21650;48.840;9.162;2022-10-12T06:31:38;12.10;99.90
35541;DHT22;21650;48.840;9.162;2022-10-12T06:34:04;12.10;99.90
35541;DHT22;21650;48.840;9.162;2022-10-12T06:36:30;12.20;99.90
35541;DHT22;21650;48.840;9.162;2022-10-12T06:38:55;12.20;99.90
35541;DHT22;21650;48.840;9.162;2022-10-12T06:41:21;12.20;99.90
35541;DHT22;21650;48.840;9.162;2022-10-12T06:43:47;12.30;99.90
35541;DHT22;21650;48.840;9.162;2022-10-12T06:46:12;12.20;99.90
35541;DHT22;21650;48.840;9.162;2022-10-12T06:48:38;12.30;99.90
35541;DHT22;21650;48.840;9.162;2022-10-12T06:51:03;12.30;99.90
35541;DHT22;21650;48.840;9.162;2022-10-12T06:53:29;12.30;99.90
35541;DHT22;21650;48.840;9.162;2022-10-12T06:55:57;12.30;99.90
35541;DHT22;21650;48.840;9.162;2022-10-12T06:58:23;12.30;99.90
35541;DHT22;21650;48.840;9.162;2022-10-12T07:00:49;12.40;99.90
35541;DHT22;21650;48.840;9.162;2022-10-12T07:03:14;12.40;99.90
35541;DHT22;21650;48.840;9.162;2022-10-12T07:05:42;12.40;99.90
35541;DHT22;21650;48.840;9.162;2022-10-12T07:08:07;12.40;99.90
35541;DHT22;21650;48.840;9.162;2022-10-12T07:10:33;12.40;99.90
35541;DHT22;21650;48.840;9.162;2022-10-12T07:12:59;12.40;99.90
35541;DHT22;21650;48.840;9.162;2022-10-12T07:15:25;12.50;99.90
35541;DHT22;21650;48.840;9.162;2022-10-12T07:17:51;12.50;99.90
35541;DHT22;21650;48.840;9.162;2022-10-12T07:20:17;12.60;99.90
35541;DHT22;21650;48.840;9.162;2022-10-12T07:22:43;12.60;99.90
35541;DHT22;21650;48.840;9.162;2022-10-12T07:25:09;12.60;99.90
35541;DHT22;21650;48.840;9.162;2022-10-12T07:27:34;12.60;99.90
35541;DHT22;21650;48.840;9.162;2022-10-12T07:30:00;12.60;99.90
35541;DHT22;21650;48.840;9.162;2022-10-12T07:32:26;12.60;99.90
35541;DHT22;21650;48.840;9.162;2022-10-12T07:34:52;12.70;99.90
35541;DHT22;21650;48.840;9.162;2022-10-12T07:37:18;12.80;99.90
35541;DHT22;21650;48.840;9.162;2022-10-12T07:39:44;12.80;99.90
35541;DHT22;21650;48.840;9.162;2022-10-12T07:42:10;12.90;99.90
35541;DHT22;21650;48.840;9.162;2022-10-12T07:44:35;13.00;99.90
35541;DHT22;21650;48.840;9.162;2022-10-12T07:47:01;13.00;99.90
35541;DHT22;21650;48.840;9.162;2022-10-12T07:49:27;13.10;99.90
35541;DHT22;21650;48.840;9.162;2022-10-12T07:51:52;13.20;99.90
35541;DHT22;21650;48.840;9.162;2022-10-12T07:54:18;13.20;99.90
35541;DHT22;21650;48.840;9.162;2022-10-12T07:56:44;13.30;99.90
35541;DHT22;21650;48.840;9.162;2022-10-12T07:59:11;13.40;99.90
35541;DHT22;21650;48.840;9.162;2022-10-12T08:01:36;13.50;99.90
35541;DHT22;21650;48.840;9.162;2022-10-12T08:04:02;13.50;99.90
35541;DHT22;21650;48.840;9.162;2022-10-12T08:06:30;13.60;99.90
35541;DHT22;21650;48.840;9.162;2022-10-12T08:08:58;13.70;99.90
35541;DHT22;21650;48.840;9.162;2022-10-12T08:11:24;13.70;99.90
35541;DHT22;21650;48.840;9.162;2022-10-12T08:13:49;13.80;99.90
35541;DHT22;21650;48.840;9.162;2022-10-12T08:16:18;13.80;99.90
35541;DHT22;21650;48.840;9.162;2022-10-12T08:18:44;13.90;99.90
35541;DHT22;21650;48.840;9.162;2022-10-12T08:21:11;14.00;99.90
35541;DHT22;21650;48.840;9.162;2022-10-12T08:23:38;14.10;99.90
35541;DHT22;21650;48.840;9.162;2022-10-12T08:26:04;14.10;99.90
35541;DHT22;21650;48.840;9.162;2022-10-12T08:28:30;14.20;99.90
35541;DHT22;21650;48.840;9.162;2022-10-12T08:30:56;14.20;99.90
35541;DHT22;21650;48.840;9.162;2022-10-12T08:33:22;14.20;99.90
35541;DHT22;21650;48.840;9.162;2022-10-12T08:35:47;14.20;99.90
35541;DHT22;21650;48.840;9.162;2022-10-12T08:38:13;14.30;99.90
35541;DHT22;21650;48.840;9.162;2022-10-12T08:40:52;14.40;99.90
35541;DHT22;21650;48.840;9.162;2022-10-12T08:46:03;14.60;99.90
35541;DHT22;21650;48.840;9.162;2022-10-12T08:48:37;14.70;99.90
35541;DHT22;21650;48.840;9.162;2022-10-12T08:51:13;14.80;99.90
35541;DHT22;21650;48.840;9.162;2022-10-12T08:53:54;14.90;99.90
35541;DHT22;21650;48.840;9.162;2022-10-12T08:56:22;15.00;99.90
35541;DHT22;21650;48.840;9.162;2022-10-12T08:58:49;15.10;99.90
35541;DHT22;21650;48.840;9.162;2022-10-12T09:01:27;15.30;99.90
35541;DHT22;21650;48.840;9.162;2022-10-12T09:06:57;15.30;99.90
35541;DHT22;21650;48.840;9.162;2022-10-12T09:09:50;15.40;99.90
35541;DHT22;21650;48.840;9.162;2022-10-12T09:49:46;15.60;99.90
35541;DHT22;21650;48.840;9.162;2022-10-12T10:16:24;15.70;99.90
35541;DHT22;21650;48.840;9.162;2022-10-12T10:26:06;15.80;99.90
35541;DHT22;21650;48.840;9.162;2022-10-12T10:28:39;15.90;99.90
35541;DHT22;21650;48.840;9.162;2022-10-12T10:31:38;16.00;99.90
35541;DHT22;21650;48.840;9.162;2022-10-12T10:34:23;16.10;99.90
35541;DHT22;21650;48.840;9.162;2022-10-12T10:37:23;16.20;99.90
35541;DHT22;21650;48.840;9.162;2022-10-12T10:39:52;16.30;99.90
35541;DHT22;21650;48.840;9.162;2022-10-12T10:42:21;16.40;99.90
35541;DHT22;21650;48.840;9.162;2022-10-12T10:44:58;16.40;99.90
35541;DHT22;21650;48.840;9.162;2022-10-12T10:47:27;16.50;99.90
35541;DHT22;21650;48.840;9.162;2022-10-12T10:49:56;16.60;99.90
35541;DHT22;21650;48.840;9.162;2022-10-12T10:52:23;16.60;99.90
35541;DHT22;21650;48.840;9.162;2022-10-12T10:55:16;16.70;99.90
35541;DHT22;21650;48.840;9.162;2022-10-12T10:58:05;16.70;99.90
35541;DHT22;21650;48.840;9.162;2022-10-12T11:00:38;16.70;99.90
35541;DHT22;21650;48.840;9.162;2022-10-12T11:03:21;16.80;99.90
35541;DHT22;21650;48.840;9.162;2022-10-12T11:05:57;16.60;99.90
35541;DHT22;21650;48.840;9.162;2022-10-12T11:08:26;16.60;99.90
35541;DHT22;21650;48.840;9.162;2022-10-12T11:11:15;16.60;99.90
35541;DHT22;21650;48.840;9.162;2022-10-12T11:13:55;16.80;99.90
35541;DHT22;21650;48.840;9.162;2022-10-12T11:19:01;16.80;99.90
35541;DHT22;21650;48.840;9.162;2022-10-12T11:21:34;16.90;99.90
35541;DHT22;21650;48.840;9.162;2022-10-12T11:29:34;17.10;99.90
35541;DHT22;21650;48.840;9.162;2022-10-12T11:32:04;17.20;99.90
35541;DHT22;21650;48.840;9.162;2022-10-12T11:35:24;17.20;99.90
35541;DHT22;21650;48.840;9.162;2022-10-12T11:37:50;17.40;99.90
35541;DHT22;21650;48.840;9.162;2022-10-12T11:40:22;17.60;99.90
35541;DHT22;21650;48.840;9.162;2022-10-12T11:42:50;17.60;99.90
35541;DHT22;21650;48.840;9.162;2022-10-12T11:45:22;17.40;99.90
35541;DHT22;21650;48.840;9.162;2022-10-12T11:47:54;17.40;99.90
35541;DHT22;21650;48.840;9.162;2022-10-12T11:50:31;17.50;99.90
35541;DHT22;21650;48.840;9.162;2022-10-12T11:53:01;17.60;99.90
35541;DHT22;21650;48.840;9.162;2022-10-12T11:58:00;17.50;99.90
35541;DHT22;21650;48.840;9.162;2022-10-12T12:11:23;17.60;99.90
35541;DHT22;21650;48.840;9.162;2022-10-12T12:13:53;17.40;99.90
35541;DHT22;21650;48.840;9.162;2022-10-12T12:17:39;17.40;99.90
35541;DHT22;21650;48.840;9.162;2022-10-12T12:28:38;17.50;99.90
35541;DHT22;21650;48.840;9.162;2022-10-12T12:33:50;17.70;99.90
35541;DHT22;21650;48.840;9.162;2022-10-12T12:36:39;17.70;99.90
35541;DHT22;21650;48.840;9.162;2022-10-12T12:39:36;17.80;99.90
35541;DHT22;21650;48.840;9.162;2022-10-12T12:42:39;17.90;99.90
35541;DHT22;21650;48.840;9.162;2022-10-12T12:48:06;18.10;99.90
35541;DHT22;21650;48.840;9.162;2022-10-12T12:51:17;18.00;99.90
35541;DHT22;21650;48.840;9.162;2022-10-12T12:53:59;17.70;99.90
35541;DHT22;21650;48.840;9.162;2022-10-12T12:59:58;17.80;99.90
35541;DHT22;21650;48.840;9.162;2022-10-12T13:02:42;17.90;99.90
35541;DHT22;21650;48.840;9.162;2022-10-12T13:08:41;17.50;99.90
35541;DHT22;21650;48.840;9.162;2022-10-12T13:11:22;17.30;99.90
35541;DHT22;21650;48.840;9.162;2022-10-12T13:19:19;17.20;99.90
35541;DHT22;21650;48.840;9.162;2022-10-12T13:21:48;17.10;99.90
35541;DHT22;21650;48.840;9.162;2022-10-12T13:24:23;17.30;99.90
35541;DHT22;21650;48.840;9.162;2022-10-12T13:26:51;17.30;99.90
35541;DHT22;21650;48.840;9.162;2022-10-12T13:29:31;17.40;99.90
35541;DHT22;21650;48.840;9.162;2022-10-12T13:32:00;17.20;99.90
35541;DHT22;21650;48.840;9.162;2022-10-12T13:34:41;17.30;99.90
35541;DHT22;21650;48.840;9.162;2022-10-12T13:37:12;17.20;99.90
35541;DHT22;21650;48.840;9.162;2022-10-12T13:39:40;17.20;99.90
35541;DHT22;21650;48.840;9.162;2022-10-12T13:42:20;17.30;99.90
35541;DHT22;21650;48.840;9.162;2022-10-12T13:44:48;17.40;99.90
35541;DHT22;21650;48.840;9.162;2022-10-12T13:47:24;17.50;99.90
35541;DHT22;21650;48.840;9.162;2022-10-12T13:49:50;17.60;99.90
35541;DHT22;21650;48.840;9.162;2022-10-12T13:54:50;17.60;99.90
35541;DHT22;21650;48.840;9.162;2022-10-12T13:57:34;17.60;99.90
35541;DHT22;21650;48.840;9.162;2022-10-12T14:02:42;17.70;99.90
35541;DHT22;21650;48.840;9.162;2022-10-12T14:05:16;17.70;99.90
35541;DHT22;21650;48.840;9.162;2022-10-12T14:07:43;17.80;99.90
35541;DHT22;21650;48.840;9.162;2022-10-12T14:10:23;17.70;99.90
35541;DHT22;21650;48.840;9.162;2022-10-12T14:12:52;17.70;99.90
35541;DHT22;21650;48.840;9.162;2022-10-12T14:15:19;17.80;99.90
35541;DHT22;21650;48.840;9.162;2022-10-12T14:17:47;17.70;99.90
35541;DHT22;21650;48.840;9.162;2022-10-12T14:20:28;17.80;99.90
35541;DHT22;21650;48.840;9.162;2022-10-12T14:22:56;17.80;99.90
35541;DHT22;21650;48.840;9.162;2022-10-12T14:25:26;17.70;99.90
35541;DHT22;21650;48.840;9.162;2022-10-12T14:35:39;17.20;99.90
35541;DHT22;21650;48.840;9.162;2022-10-12T14:38:37;17.30;99.90
35541;DHT22;21650;48.840;9.162;2022-10-12T14:41:29;17.20;99.90
35541;DHT22;21650;48.840;9.162;2022-10-12T14:44:09;17.20;99.90
35541;DHT22;21650;48.840;9.162;2022-10-12T14:46:59;17.10;99.90
35541;DHT22;21650;48.840;9.162;2022-10-12T14:49:44;17.10;99.90
35541;DHT22;21650;48.840;9.162;2022-10-12T14:52:22;17.20;99.90
35541;DHT22;21650;48.840;9.162;2022-10-12T14:54:55;17.10;99.90
35541;DHT22;21650;48.840;9.162;2022-10-12T14:57:23;17.00;99.90
35541;DHT22;21650;48.840;9.162;2022-10-12T14:59:49;16.90;99.90
35541;DHT22;21650;48.840;9.162;2022-10-12T15:02:21;17.10;99.90
35541;DHT22;21650;48.840;9.162;2022-10-12T15:04:47;16.90;99.90
35541;DHT22;21650;48.840;9.162;2022-10-12T15:07:20;17.00;99.90
35541;DHT22;21650;48.840;9.162;2022-10-12T15:09:47;16.90;99.90
35541;DHT22;21650;48.840;9.162;2022-10-12T15:12:15;16.90;99.90
35541;DHT22;21650;48.840;9.162;2022-10-12T15:14:42;16.80;99.90
35541;DHT22;21650;48.840;9.162;2022-10-12T15:17:18;16.70;99.90
35541;DHT22;21650;48.840;9.162;2022-10-12T15:19:45;16.70;99.90
35541;DHT22;21650;48.840;9.162;2022-10-12T15:22:17;16.60;99.90
35541;DHT22;21650;48.840;9.162;2022-10-12T15:24:43;16.50;99.90
35541;DHT22;21650;48.840;9.162;2022-10-12T15:27:09;16.50;99.90
35541;DHT22;21650;48.840;9.162;2022-10-12T15:29:35;16.50;99.90
35541;DHT22;21650;48.840;9.162;2022-10-12T15:32:00;16.40;99.90
35541;DHT22;21650;48.840;9.162;2022-10-12T15:34:26;16.50;99.90
35541;DHT22;21650;48.840;9.162;2022-10-12T15:36:52;16.40;99.90
35541;DHT22;21650;48.840;9.162;2022-10-12T15:39:18;16.30;99.90
35541;DHT22;21650;48.840;9.162;2022-10-12T15:41:44;16.30;99.90
35541;DHT22;21650;48.840;9.162;2022-10-12T15:44:13;16.30;99.90
35541;DHT22;21650;48.840;9.162;2022-10-12T15:46:40;16.30;99.90
35541;DHT22;21650;48.840;9.162;2022-10-12T15:49:06;16.30;99.90
35541;DHT22;21650;48.840;9.162;2022-10-12T15:51:37;16.30;99.90
35541;DHT22;21650;48.840;9.162;2022-10-12T15:54:04;16.20;99.90
35541;DHT22;21650;48.840;9.162;2022-10-12T15:56:29;16.10;99.90
35541;DHT22;21650;48.840;9.162;2022-10-12T15:58:55;16.10;99.90
35541;DHT22;21650;48.840;9.162;2022-10-12T16:01:21;16.00;99.90
35541;DHT22;21650;48.840;9.162;2022-10-12T16:03:47;16.00;99.90
35541;DHT22;21650;48.840;9.162;2022-10-12T16:06:13;15.90;99.90
35541;DHT22;21650;48.840;9.162;2022-10-12T16:08:39;15.80;99.90
35541;DHT22;21650;48.840;9.162;2022-10-12T16:11:06;15.80;99.90
35541;DHT22;21650;48.840;9.162;2022-10-12T16:13:33;15.70;99.90
35541;DHT22;21650;48.840;9.162;2022-10-12T16:15:59;15.60;99.90
35541;DHT22;21650;48.840;9.162;2022-10-12T16:18:24;15.50;99.90
35541;DHT22;21650;48.840;9.162;2022-10-12T16:20:50;15.40;99.90
35541;DHT22;21650;48.840;9.162;2022-10-12T16:23:35;15.30;99.90
35541;DHT22;21650;48.840;9.162;2022-10-12T16:26:04;15.30;99.90
35541;DHT22;21650;48.840;9.162;2022-10-12T16:28:30;15.20;99.90
35541;DHT22;21650;48.840;9.162;2022-10-12T16:30:55;15.10;99.90
35541;DHT22;21650;48.840;9.162;2022-10-12T16:33:21;15.10;99.90
35541;DHT22;21650;48.840;9.162;2022-10-12T16:35:46;15.00;99.90
35541;DHT22;21650;48.840;9.162;2022-10-12T16:38:12;14.80;99.90
35541;DHT22;21650;48.840;9.162;2022-10-12T16:40:40;14.70;99.90
35541;DHT22;21650;48.840;9.162;2022-10-12T16:43:06;14.60;99.90
35541;DHT22;21650;48.840;9.162;2022-10-12T16:45:32;14.50;99.90
35541;DHT22;21650;48.840;9.162;2022-10-12T16:47:57;14.50;99.90
35541;DHT22;21650;48.840;9.162;2022-10-12T16:50:24;14.40;99.90
35541;DHT22;21650;48.840;9.162;2022-10-12T16:52:50;14.40;99.90
35541;DHT22;21650;48.840;9.162;2022-10-12T16:55:17;14.30;99.90
35541;DHT22;21650;48.840;9.162;2022-10-12T16:57:42;14.20;99.90
35541;DHT22;21650;48.840;9.162;2022-10-12T17:00:11;14.20;99.90
35541;DHT22;21650;48.840;9.162;2022-10-12T17:02:37;14.10;99.90
35541;DHT22;21650;48.840;9.162;2022-10-12T17:05:04;14.10;99.90
35541;DHT22;21650;48.840;9.162;2022-10-12T17:07:30;14.10;99.90
35541;DHT22;21650;48.840;9.162;2022-10-12T17:09:56;14.00;99.90
35541;DHT22;21650;48.840;9.162;2022-10-12T17:12:23;13.90;99.90
35541;DHT22;21650;48.840;9.162;2022-10-12T17:14:49;13.90;99.90
35541;DHT22;21650;48.840;9.162;2022-10-12T17:17:16;13.80;99.90
35541;DHT22;21650;48.840;9.162;2022-10-12T17:19:42;13.80;99.90
35541;DHT22;21650;48.840;9.162;2022-10-12T17:22:10;13.70;99.90
35541;DHT22;21650;48.840;9.162;2022-10-12T17:24:38;13.70;99.90
35541;DHT22;21650;48.840;9.162;2022-10-12T17:27:06;13.70;99.90
35541;DHT22;21650;48.840;9.162;2022-10-12T17:29:32;13.60;99.90
35541;DHT22;21650;48.840;9.162;2022-10-12T17:32:01;13.50;99.90
35541;DHT22;21650;48.840;9.162;2022-10-12T17:34:29;13.60;99.90
35541;DHT22;21650;48.840;9.162;2022-10-12T17:36:56;13.50;99.90
35541;DHT22;21650;48.840;9.162;2022-10-12T17:39:23;13.50;99.90
35541;DHT22;21650;48.840;9.162;2022-10-12T17:41:49;13.40;99.90
35541;DHT22;21650;48.840;9.162;2022-10-12T17:44:15;13.40;99.90
35541;DHT22;21650;48.840;9.162;2022-10-12T17:46:42;13.40;99.90
35541;DHT22;21650;48.840;9.162;2022-10-12T17:49:11;13.40;99.90
35541;DHT22;21650;48.840;9.162;2022-10-12T17:51:36;13.30;99.90
35541;DHT22;21650;48.840;9.162;2022-10-12T17:54:02;13.30;99.90
35541;DHT22;21650;48.840;9.162;2022-10-12T17:56:28;13.30;99.90
35541;DHT22;21650;48.840;9.162;2022-10-12T17:58:55;13.20;99.90
35541;DHT22;21650;48.840;9.162;2022-10-12T18:01:21;13.20;99.90
35541;DHT22;21650;48.840;9.162;2022-10-12T18:03:46;13.20;99.90
35541;DHT22;21650;48.840;9.162;2022-10-12T18:06:16;13.20;99.90
35541;DHT22;21650;48.840;9.162;2022-10-12T18:08:42;13.10;99.90
35541;DHT22;21650;48.840;9.162;2022-10-12T18:11:08;13.10;99.90
35541;DHT22;21650;48.840;9.162;2022-10-12T18:13:35;13.10;99.90
35541;DHT22;21650;48.840;9.162;2022-10-12T18:16:02;13.10;99.90
35541;DHT22;21650;48.840;9.162;2022-10-12T18:18:28;13.10;99.90